Tecumseh — WTW9257 — position and weather

sailwx.info

Track history (hours):
 
Tides and Currents Weather Stations Pressure Air Temp Water Temp Dewpoint Dewpoint Depression Visibility Wind Speed Wind Dir Waves Ship Positions

Tecumseh

More information available from US FCC via Universal Licensing System and Coast Guard Vessel Documentation Center.

Last reported at 2014-Sep-20 01:33 UTC. Time now 2014-Sep-20 01:56 UTC.
Position N 49°19' W 123°16'.

Length 90 m; draft 4.9 m.

Type: Tow > 200 m length. MMSI: 367133160.

Date/timePositionNaut miles runAvg speedWind from/ knotsBaromVisibWave heightAir tempDewpointWater temp
2014-Sep-20 01:33N 49°19' W 123°16'3 3.4
2014-Sep-20 00:34N 49°19' W 123°11'6 5.9
2014-Sep-19 23:34N 49°18' W 123°02'3 2.9
2014-Sep-19 22:34N 49°18' W 122°58'0 0.5
2014-Sep-19 21:33N 49°17' W 122°57'0 0.0
2014-Sep-19 20:34N 49°17' W 122°57'0 0.0
2014-Sep-19 19:34N 49°17' W 122°57'0 0.0
2014-Sep-19 18:33N 49°17' W 122°57'0 0.0
2014-Sep-19 17:33N 49°17' W 122°57'0 0.0
2014-Sep-19 16:33N 49°17' W 122°57'0 0.0
2014-Sep-19 15:33N 49°17' W 122°57'0 0.0
2014-Sep-19 14:34N 49°17' W 122°57'0 0.0
2014-Sep-19 13:34N 49°17' W 122°57'0 0.0
2014-Sep-19 12:34N 49°17' W 122°57'0 0.0
2014-Sep-19 11:34N 49°17' W 122°57'2 1.6
2014-Sep-19 10:33N 49°18' W 122°59'6 6.3
2014-Sep-19 09:34N 49°19' W 123°09'5 5.3
2014-Sep-19 08:34N 49°18' W 123°17'7 6.7
2014-Sep-19 07:34N 49°11' W 123°19'6 6.3
2014-Sep-19 06:34N 49°05' W 123°20'7 6.7
2014-Sep-19 05:34N 49°00' W 123°13'7 6.7
2014-Sep-19 04:33N 48°56' W 123°05'7 6.7
2014-Sep-19 03:34N 48°51' W 122°58'7 6.7
2014-Sep-19 02:33N 48°47' W 122°50'6 6.3
2014-Sep-19 01:34N 48°43' W 122°43'6 6.1
2014-Sep-19 00:33N 48°37' W 122°45'6 6.3
2014-Sep-18 23:33N 48°30' W 122°44'8 7.3
2014-Sep-18 22:32N 48°23' W 122°44'7 7.7
2014-Sep-18 21:33N 48°16' W 122°47'18 5.6
2014-Sep-18 18:25N 47°60' W 122°36'5 5.8
2014-Sep-18 17:34N 47°56' W 122°30'6 6.4
2014-Sep-18 16:34N 47°50' W 122°27'7 6.6
2014-Sep-18 15:33N 47°44' W 122°26'7 6.7
2014-Sep-18 14:33N 47°37' W 122°27'6 6.5
2014-Sep-18 13:33N 47°31' W 122°25'8 6.7
2014-Sep-18 12:19N 47°23' W 122°21'5 6.6
2014-Sep-18 11:33N 47°19' W 122°26'2 2.4
2014-Sep-18 10:34N 47°17' W 122°25'2 2.4
2014-Sep-18 09:33N 47°16' W 122°22'0 0.1
2014-Sep-18 08:34N 47°16' W 122°22'0 0.0
2014-Sep-18 07:33N 47°16' W 122°22'0 0.0
2014-Sep-18 06:33N 47°16' W 122°22'0 0.0
2014-Sep-18 05:33N 47°16' W 122°22'0 0.0
2014-Sep-18 04:34N 47°16' W 122°22'0 0.0
2014-Sep-18 03:34N 47°16' W 122°22'0 0.0
2014-Sep-18 02:33N 47°16' W 122°22'0 0.0
2014-Sep-18 01:33N 47°16' W 122°22'0 0.0
2014-Sep-18 00:34N 47°16' W 122°22'0 0.0
2014-Sep-17 23:34N 47°16' W 122°22'0 0.0
2014-Sep-17 22:34N 47°16' W 122°22'  
2014-Sep-13 04:13N 47°16' W 122°22'0 0.0
2014-Sep-12 11:32N 47°16' W 122°22'  
2014-Sep-10 04:28N 47°16' W 122°22'  
Track history (hours):
 
Tides and Currents Weather Stations Pressure Air Temp Water Temp Dewpoint Dewpoint Depression Visibility Wind Speed Wind Dir Waves Ship Positions

Tecumseh

More information available from US FCC via Universal Licensing System and Coast Guard Vessel Documentation Center.

Last reported at 2014-Sep-20 01:33 UTC. Time now 2014-Sep-20 01:56 UTC.
Position N 49°19' W 123°16'.

Length 90 m; draft 4.9 m.

Type: Tow > 200 m length. MMSI: 367133160.

Date/timePositionNaut miles runAvg speedWind from/ knotsBaromVisibWave heightAir tempDewpointWater temp
2014-Sep-20 01:33N 49°19' W 123°16'3 3.4
2014-Sep-20 00:34N 49°19' W 123°11'6 5.9
2014-Sep-19 23:34N 49°18' W 123°02'3 2.9
2014-Sep-19 22:34N 49°18' W 122°58'0 0.5
2014-Sep-19 21:33N 49°17' W 122°57'0 0.0
2014-Sep-19 20:34N 49°17' W 122°57'0 0.0
2014-Sep-19 19:34N 49°17' W 122°57'0 0.0
2014-Sep-19 18:33N 49°17' W 122°57'0 0.0
2014-Sep-19 17:33N 49°17' W 122°57'0 0.0
2014-Sep-19 16:33N 49°17' W 122°57'0 0.0
2014-Sep-19 15:33N 49°17' W 122°57'0 0.0
2014-Sep-19 14:34N 49°17' W 122°57'0 0.0
2014-Sep-19 13:34N 49°17' W 122°57'0 0.0
2014-Sep-19 12:34N 49°17' W 122°57'0 0.0
2014-Sep-19 11:34N 49°17' W 122°57'2 1.6
2014-Sep-19 10:33N 49°18' W 122°59'6 6.3
2014-Sep-19 09:34N 49°19' W 123°09'5 5.3
2014-Sep-19 08:34N 49°18' W 123°17'7 6.7
2014-Sep-19 07:34N 49°11' W 123°19'6 6.3
2014-Sep-19 06:34N 49°05' W 123°20'7 6.7
2014-Sep-19 05:34N 49°00' W 123°13'7 6.7
2014-Sep-19 04:33N 48°56' W 123°05'7 6.7
2014-Sep-19 03:34N 48°51' W 122°58'7 6.7
2014-Sep-19 02:33N 48°47' W 122°50'6 6.3
2014-Sep-19 01:34N 48°43' W 122°43'6 6.1
2014-Sep-19 00:33N 48°37' W 122°45'6 6.3
2014-Sep-18 23:33N 48°30' W 122°44'8 7.3
2014-Sep-18 22:32N 48°23' W 122°44'7 7.7
2014-Sep-18 21:33N 48°16' W 122°47'18 5.6
2014-Sep-18 18:25N 47°60' W 122°36'5 5.8
2014-Sep-18 17:34N 47°56' W 122°30'6 6.4
2014-Sep-18 16:34N 47°50' W 122°27'7 6.6
2014-Sep-18 15:33N 47°44' W 122°26'7 6.7
2014-Sep-18 14:33N 47°37' W 122°27'6 6.5
2014-Sep-18 13:33N 47°31' W 122°25'8 6.7
2014-Sep-18 12:19N 47°23' W 122°21'5 6.6
2014-Sep-18 11:33N 47°19' W 122°26'2 2.4
2014-Sep-18 10:34N 47°17' W 122°25'2 2.4
2014-Sep-18 09:33N 47°16' W 122°22'0 0.1
2014-Sep-18 08:34N 47°16' W 122°22'0 0.0
2014-Sep-18 07:33N 47°16' W 122°22'0 0.0
2014-Sep-18 06:33N 47°16' W 122°22'0 0.0
2014-Sep-18 05:33N 47°16' W 122°22'0 0.0
2014-Sep-18 04:34N 47°16' W 122°22'0 0.0
2014-Sep-18 03:34N 47°16' W 122°22'0 0.0
2014-Sep-18 02:33N 47°16' W 122°22'0 0.0
2014-Sep-18 01:33N 47°16' W 122°22'0 0.0
2014-Sep-18 00:34N 47°16' W 122°22'0 0.0
2014-Sep-17 23:34N 47°16' W 122°22'0 0.0
2014-Sep-17 22:34N 47°16' W 122°22'  
2014-Sep-13 04:13N 47°16' W 122°22'0 0.0
2014-Sep-12 11:32N 47°16' W 122°22'  
2014-Sep-10 04:28N 47°16' W 122°22'  

Dump ship's entire track history